Time;durP1;ratioP1;P1;durP2;ratioP2;P2;SDS_P1;SDS_P2;PMS_P1;PMS_P2;Temp;Humidity;BMP_temperature;BMP_pressure;BME280_temperature;BME280_humidity;BME280_pressure;Samples;Min_cycle;Max_cycle;Signal;HPM_P1;HPM_P2
2022/09/27 00:00:57;;;;;;;372.43;166.77;;;;;;;;;;5010451;28;20233;-52
2022/09/27 00:03:23;;;;;;;389.90;174.80;;;;;;;;;;5011472;28;20215;-52
2022/09/27 00:05:49;;;;;;;368.50;163.70;;;;;;;;;;5013688;28;20208;-52
2022/09/27 00:08:15;;;;;;;349.13;158.63;;;;;;;;;;5010687;28;20200;-53
2022/09/27 00:10:41;;;;;;;331.43;151.30;;;;;;;;;;5023968;28;20595;-53
2022/09/27 00:13:07;;;;;;;379.13;167.17;;;;;;;;;;5021884;28;20237;-52
2022/09/27 00:15:33;;;;;;;402.07;177.63;;;;;;;;;;5006556;28;20254;-54
2022/09/27 00:17:59;;;;;;;350.90;157.63;;;;;;;;;;5011766;28;20177;-53
2022/09/27 00:20:25;;;;;;;382.47;169.30;;;;;;;;;;5002644;28;20276;-53
2022/09/27 00:22:50;;;;;;;383.17;170.07;;;;;;;;;;5012410;28;20632;-53
2022/09/27 00:25:17;;;;;;;370.93;167.27;;;;;;;;;;5010051;28;20273;-53
2022/09/27 00:27:43;;;;;;;382.67;173.00;;;;;;;;;;5009956;28;20684;-53
2022/09/27 00:30:09;;;;;;;426.40;188.33;;;;;;;;;;5006341;28;20758;-53
2022/09/27 00:32:35;;;;;;;335.53;155.10;;;;;;;;;;5014618;28;20184;-54
2022/09/27 00:35:01;;;;;;;333.13;151.77;;;;;;;;;;5006514;28;20736;-53
2022/09/27 00:37:28;;;;;;;299.73;139.73;;;;;;;;;;5018502;28;20728;-53
2022/09/27 00:39:53;;;;;;;370.03;169.73;;;;;;;;;;5019525;28;20192;-52
2022/09/27 00:42:19;;;;;;;330.70;152.33;;;;;;;;;;5020249;28;20177;-53
2022/09/27 00:44:59;;;;;;;346.77;160.13;;;;;;;;;;5016459;28;20619;-53
2022/09/27 00:47:48;;;;;;;319.60;146.03;;;;;;;;;;5017779;28;20486;-53
2022/09/27 00:50:23;;;;;;;387.20;171.93;;;;;;;;;;5004413;28;20748;-52
2022/09/27 00:52:54;;;;;;;368.37;165.30;;;;;;;;;;5007975;28;20176;-53
2022/09/27 00:55:23;;;;;;;361.63;164.00;;;;;;;;;;5013460;28;20215;-52
2022/09/27 00:57:49;;;;;;;474.80;205.60;;;;;;;;;;5003932;28;20188;-52
2022/09/27 01:00:16;;;;;;;401.90;180.73;;;;;;;;;;4998058;28;20193;-52
2022/09/27 01:02:44;;;;;;;410.50;182.60;;;;;;;;;;5006685;28;20192;-53
2022/09/27 01:05:11;;;;;;;350.97;159.33;;;;;;;;;;5008947;28;20263;-52
2022/09/27 01:07:37;;;;;;;347.63;157.77;;;;;;;;;;5011497;28;20216;-54
2022/09/27 01:10:04;;;;;;;399.97;177.83;;;;;;;;;;5014240;28;20194;-52
2022/09/27 01:12:35;;;;;;;360.47;162.80;;;;;;;;;;5008262;28;20440;-51
2022/09/27 01:15:07;;;;;;;385.93;170.43;;;;;;;;;;5002820;28;20231;-52
2022/09/27 01:17:48;;;;;;;355.30;161.40;;;;;;;;;;5013892;28;20191;-54
2022/09/27 01:20:30;;;;;;;368.20;163.03;;;;;;;;;;5010159;28;20188;-54
2022/09/27 01:23:05;;;;;;;399.40;173.93;;;;;;;;;;5009069;28;20279;-52
2022/09/27 01:25:49;;;;;;;372.27;169.13;;;;;;;;;;5013171;28;20212;-53
2022/09/27 01:28:20;;;;;;;355.03;160.47;;;;;;;;;;5011366;28;20184;-52
2022/09/27 01:31:02;;;;;;;372.70;165.33;;;;;;;;;;5009041;28;20180;-53
2022/09/27 01:33:28;;;;;;;334.17;150.73;;;;;;;;;;5009947;28;20189;-54
2022/09/27 01:35:54;;;;;;;334.33;148.57;;;;;;;;;;5012231;28;20277;-54
2022/09/27 01:38:39;;;;;;;349.27;155.40;;;;;;;;;;5011124;28;22446;-53
2022/09/27 01:41:07;;;;;;;373.23;166.03;;;;;;;;;;5006648;28;20188;-53
2022/09/27 01:43:40;;;;;;;389.07;169.90;;;;;;;;;;5006648;28;20541;-54
2022/09/27 01:46:10;;;;;;;377.93;168.43;;;;;;;;;;5007251;28;20786;-54
2022/09/27 01:48:44;;;;;;;479.40;218.73;;;;;;;;;;5007533;28;20508;-53
2022/09/27 01:51:10;;;;;;;342.83;154.87;;;;;;;;;;5013049;28;20302;-53
2022/09/27 01:53:37;;;;;;;372.17;165.63;;;;;;;;;;5011767;28;20193;-53
2022/09/27 01:56:05;;;;;;;363.07;164.57;;;;;;;;;;5008091;28;20235;-54
2022/09/27 01:58:36;;;;;;;337.57;150.70;;;;;;;;;;5012340;28;20195;-53
2022/09/27 02:01:03;;;;;;;352.43;160.83;;;;;;;;;;5017636;28;20196;-53
2022/09/27 02:03:33;;;;;;;344.37;157.07;;;;;;;;;;5019034;28;20223;-54
2022/09/27 02:06:01;;;;;;;326.30;146.40;;;;;;;;;;5011407;28;20573;-52
2022/09/27 02:08:32;;;;;;;349.53;156.77;;;;;;;;;;5022796;28;20188;-52
2022/09/27 02:11:00;;;;;;;339.27;153.70;;;;;;;;;;5021502;28;20271;-52
2022/09/27 02:13:40;;;;;;;361.77;163.43;;;;;;;;;;5019045;28;20262;-53
2022/09/27 02:16:18;;;;;;;351.43;158.80;;;;;;;;;;5023846;28;20462;-53
2022/09/27 02:18:44;;;;;;;332.77;151.90;;;;;;;;;;5019699;28;20190;-52
2022/09/27 02:21:11;;;;;;;333.43;152.10;;;;;;;;;;5015085;28;20279;-54
2022/09/27 02:24:03;;;;;;;380.60;169.67;;;;;;;;;;5013768;28;20195;-53
2022/09/27 02:26:36;;;;;;;279.37;131.77;;;;;;;;;;5013273;28;20216;-53
2022/09/27 02:29:06;;;;;;;352.80;160.07;;;;;;;;;;5016743;28;20595;-53
2022/09/27 02:31:32;;;;;;;307.33;141.10;;;;;;;;;;5017978;28;20180;-53
2022/09/27 02:34:07;;;;;;;353.47;156.80;;;;;;;;;;5009973;28;20188;-52
2022/09/27 02:36:33;;;;;;;329.63;151.73;;;;;;;;;;5011749;28;20191;-52
2022/09/27 02:39:00;;;;;;;316.20;145.43;;;;;;;;;;5023376;28;20207;-52
2022/09/27 02:41:25;;;;;;;329.60;151.03;;;;;;;;;;5017596;28;20241;-52
2022/09/27 02:43:56;;;;;;;374.07;167.03;;;;;;;;;;5023402;28;20476;-52
2022/09/27 02:46:28;;;;;;;334.90;152.17;;;;;;;;;;5012219;28;20211;-52
2022/09/27 02:49:01;;;;;;;360.80;161.77;;;;;;;;;;5006873;28;20331;-53
2022/09/27 02:51:30;;;;;;;358.20;160.87;;;;;;;;;;5014498;28;20576;-53
2022/09/27 02:54:04;;;;;;;376.50;164.43;;;;;;;;;;5018609;28;20664;-53
2022/09/27 02:56:32;;;;;;;362.43;160.67;;;;;;;;;;5015679;28;20192;-53
2022/09/27 02:59:21;;;;;;;374.37;164.00;;;;;;;;;;5013298;28;20191;-52
2022/09/27 03:02:07;;;;;;;401.37;173.03;;;;;;;;;;5006417;28;20203;-54
2022/09/27 03:04:37;;;;;;;366.17;162.37;;;;;;;;;;5014799;28;20200;-53
2022/09/27 03:07:03;;;;;;;349.87;155.03;;;;;;;;;;5015566;28;20338;-52
2022/09/27 03:09:39;;;;;;;339.33;149.93;;;;;;;;;;5022701;28;20196;-52
2022/09/27 03:12:05;;;;;;;380.70;166.93;;;;;;;;;;5013703;28;20528;-52
2022/09/27 03:14:31;;;;;;;363.30;158.77;;;;;;;;;;5014473;28;20208;-53
2022/09/27 03:16:57;;;;;;;385.17;165.10;;;;;;;;;;5012103;28;20184;-52
2022/09/27 03:19:23;;;;;;;345.30;152.33;;;;;;;;;;5016133;28;20684;-54
2022/09/27 03:21:49;;;;;;;344.83;152.33;;;;;;;;;;5012529;28;20509;-53
2022/09/27 03:24:15;;;;;;;336.10;148.87;;;;;;;;;;5017590;28;20548;-53
2022/09/27 03:26:41;;;;;;;372.20;164.03;;;;;;;;;;5013237;28;20577;-52
2022/09/27 03:29:07;;;;;;;394.70;171.23;;;;;;;;;;5009337;28;20199;-54
2022/09/27 03:31:33;;;;;;;397.93;171.07;;;;;;;;;;5012990;28;20722;-52
2022/09/27 03:33:59;;;;;;;364.97;161.67;;;;;;;;;;5016066;28;20450;-53
2022/09/27 03:36:26;;;;;;;329.07;147.43;;;;;;;;;;5019901;28;20196;-53
2022/09/27 03:38:52;;;;;;;356.00;154.10;;;;;;;;;;5018601;28;20194;-54
2022/09/27 03:41:18;;;;;;;355.73;156.93;;;;;;;;;;5022340;28;20176;-54
2022/09/27 03:43:44;;;;;;;369.97;165.20;;;;;;;;;;5020671;28;20228;-53
2022/09/27 03:46:10;;;;;;;380.80;168.23;;;;;;;;;;5013987;28;20216;-54
2022/09/27 03:48:36;;;;;;;374.03;166.30;;;;;;;;;;5006410;28;20184;-54
2022/09/27 03:51:03;;;;;;;378.63;165.17;;;;;;;;;;5016220;28;20525;-53
2022/09/27 03:53:29;;;;;;;379.17;166.37;;;;;;;;;;5019115;28;20180;-54
2022/09/27 03:55:55;;;;;;;390.80;172.57;;;;;;;;;;5015204;28;20215;-54
2022/09/27 03:58:21;;;;;;;407.03;179.03;;;;;;;;;;5014550;28;20196;-53
2022/09/27 04:00:47;;;;;;;332.13;147.13;;;;;;;;;;5009711;28;20180;-53
2022/09/27 04:03:13;;;;;;;394.57;171.70;;;;;;;;;;5014598;28;20202;-53
2022/09/27 04:05:39;;;;;;;342.83;151.87;;;;;;;;;;5020131;28;20208;-54
2022/09/27 04:08:06;;;;;;;344.50;152.30;;;;;;;;;;5022907;28;20298;-53
2022/09/27 04:10:32;;;;;;;379.17;166.00;;;;;;;;;;5015697;28;20183;-52
2022/09/27 04:12:59;;;;;;;394.30;171.67;;;;;;;;;;5014124;28;20173;-52
2022/09/27 04:15:25;;;;;;;365.83;162.13;;;;;;;;;;5009082;28;20286;-53
2022/09/27 04:17:51;;;;;;;374.20;162.77;;;;;;;;;;5013788;28;20191;-53
2022/09/27 04:20:17;;;;;;;344.17;150.63;;;;;;;;;;5013381;28;20814;-53
2022/09/27 04:22:44;;;;;;;349.57;152.93;;;;;;;;;;5012307;28;20768;-53
2022/09/27 04:25:10;;;;;;;337.07;147.83;;;;;;;;;;5019172;28;20212;-53
2022/09/27 04:27:36;;;;;;;382.80;168.20;;;;;;;;;;5019919;28;20706;-52
2022/09/27 04:30:05;;;;;;;382.90;165.83;;;;;;;;;;5009531;28;20602;-52
2022/09/27 04:32:31;;;;;;;394.10;172.07;;;;;;;;;;5019962;28;20176;-52
2022/09/27 04:37:43;;;;;;;385.43;168.60;;;;;;;;;;5015029;28;20801;-53
2022/09/27 04:40:09;;;;;;;339.00;148.93;;;;;;;;;;5016093;28;20180;-53
2022/09/27 04:42:36;;;;;;;368.00;164.87;;;;;;;;;;5011401;28;20257;-54
2022/09/27 04:45:01;;;;;;;393.77;171.13;;;;;;;;;;5013022;28;20220;-53
2022/09/27 04:47:27;;;;;;;410.10;186.07;;;;;;;;;;5009683;28;20713;-52
2022/09/27 04:49:53;;;;;;;408.10;180.23;;;;;;;;;;5010189;28;20259;-53
2022/09/27 04:52:19;;;;;;;404.57;178.27;;;;;;;;;;5016094;28;20540;-52
2022/09/27 04:54:45;;;;;;;352.17;154.47;;;;;;;;;;5020293;28;20295;-53
2022/09/27 04:57:11;;;;;;;332.57;141.50;;;;;;;;;;5012661;28;20660;-52
2022/09/27 04:59:39;;;;;;;366.70;159.20;;;;;;;;;;5021847;28;20180;-53
2022/09/27 05:02:05;;;;;;;415.90;177.80;;;;;;;;;;5013109;28;20354;-53
2022/09/27 05:04:31;;;;;;;346.87;152.80;;;;;;;;;;5017611;28;20208;-53
2022/09/27 05:06:57;;;;;;;401.87;174.40;;;;;;;;;;5009776;28;20824;-55
2022/09/27 05:09:23;;;;;;;377.37;164.60;;;;;;;;;;5016276;28;20176;-54
2022/09/27 05:11:49;;;;;;;385.57;166.43;;;;;;;;;;5009596;28;20211;-54
2022/09/27 05:14:14;;;;;;;390.30;168.87;;;;;;;;;;5009968;28;20234;-54
2022/09/27 05:16:40;;;;;;;402.87;174.87;;;;;;;;;;4983657;28;20188;-54
2022/09/27 05:19:06;;;;;;;385.97;170.37;;;;;;;;;;5013048;28;20186;-54
2022/09/27 05:21:32;;;;;;;401.33;173.60;;;;;;;;;;5015761;28;20898;-53
2022/09/27 05:23:59;;;;;;;445.27;193.10;;;;;;;;;;5002817;28;20214;-53
2022/09/27 05:26:25;;;;;;;379.33;167.00;;;;;;;;;;5011370;28;20291;-53
2022/09/27 05:28:51;;;;;;;430.33;186.87;;;;;;;;;;5011628;28;20294;-54
2022/09/27 05:31:17;;;;;;;474.20;205.37;;;;;;;;;;5003027;28;20216;-53
2022/09/27 05:33:43;;;;;;;391.17;171.00;;;;;;;;;;5011123;28;20187;-52
2022/09/27 05:36:10;;;;;;;501.00;215.00;;;;;;;;;;5008396;28;20204;-53
2022/09/27 05:38:36;;;;;;;375.70;165.97;;;;;;;;;;5009210;28;20330;-53
2022/09/27 05:41:04;;;;;;;406.10;179.30;;;;;;;;;;5015301;28;20739;-53
2022/09/27 05:43:30;;;;;;;377.43;167.00;;;;;;;;;;5016247;28;20181;-54
2022/09/27 05:45:56;;;;;;;404.33;174.13;;;;;;;;;;5011211;28;20235;-54
2022/09/27 05:48:22;;;;;;;369.20;161.80;;;;;;;;;;5013813;28;20201;-53
2022/09/27 05:50:47;;;;;;;439.17;192.33;;;;;;;;;;5013026;28;20169;-54
2022/09/27 05:53:13;;;;;;;469.77;206.57;;;;;;;;;;5011800;28;20181;-53
2022/09/27 05:55:39;;;;;;;408.60;179.93;;;;;;;;;;5011333;28;20284;-54
2022/09/27 05:58:06;;;;;;;446.10;193.73;;;;;;;;;;5003718;28;20195;-54
2022/09/27 06:00:34;;;;;;;447.37;197.50;;;;;;;;;;5012243;28;20200;-53
2022/09/27 06:03:01;;;;;;;463.17;204.70;;;;;;;;;;5010044;28;20335;-54
2022/09/27 06:05:28;;;;;;;471.83;211.80;;;;;;;;;;5007267;28;20214;-54
2022/09/27 06:08:01;;;;;;;465.50;208.47;;;;;;;;;;5007009;28;20246;-53
2022/09/27 06:10:27;;;;;;;427.53;188.80;;;;;;;;;;4988199;28;20199;-53
2022/09/27 06:12:55;;;;;;;396.87;174.13;;;;;;;;;;4991118;28;20185;-54
2022/09/27 06:15:21;;;;;;;405.27;176.07;;;;;;;;;;4998326;28;20200;-54
2022/09/27 06:17:47;;;;;;;382.47;171.50;;;;;;;;;;5003874;28;20192;-52
2022/09/27 06:20:13;;;;;;;387.07;173.23;;;;;;;;;;5003994;28;20219;-53
2022/09/27 06:22:39;;;;;;;358.47;164.50;;;;;;;;;;5007780;28;20184;-55
2022/09/27 06:25:06;;;;;;;376.57;166.60;;;;;;;;;;5008288;28;20220;-53
2022/09/27 06:27:32;;;;;;;372.83;165.57;;;;;;;;;;5009547;28;20423;-53
2022/09/27 06:29:58;;;;;;;461.67;203.03;;;;;;;;;;4996162;28;20742;-54
2022/09/27 06:32:24;;;;;;;389.80;169.53;;;;;;;;;;5008468;28;20266;-53
2022/09/27 06:34:50;;;;;;;400.57;176.83;;;;;;;;;;5010271;28;20431;-53
2022/09/27 06:37:16;;;;;;;390.97;170.00;;;;;;;;;;5012151;28;20556;-53
2022/09/27 06:39:42;;;;;;;436.63;190.47;;;;;;;;;;5004554;28;20189;-55
2022/09/27 06:42:09;;;;;;;475.70;206.13;;;;;;;;;;5006316;28;20192;-53
2022/09/27 06:44:35;;;;;;;482.80;221.43;;;;;;;;;;5005434;28;20234;-55
2022/09/27 06:47:01;;;;;;;512.20;225.77;;;;;;;;;;5007442;28;20220;-54
2022/09/27 06:49:28;;;;;;;353.53;157.33;;;;;;;;;;5014589;28;20238;-55
2022/09/27 06:51:54;;;;;;;374.30;162.70;;;;;;;;;;5021021;28;20179;-54
2022/09/27 06:54:20;;;;;;;422.43;190.37;;;;;;;;;;5020702;28;20192;-56
2022/09/27 06:56:48;;;;;;;417.47;185.13;;;;;;;;;;5005280;28;20202;-52
2022/09/27 07:01:59;;;;;;;422.03;183.50;;;;;;;;;;5017387;28;20718;-51
2022/09/27 07:04:25;;;;;;;406.50;177.13;;;;;;;;;;5012990;28;20229;-53
2022/09/27 07:06:52;;;;;;;374.73;163.87;;;;;;;;;;5009408;28;20262;-53
2022/09/27 07:09:18;;;;;;;328.80;143.63;;;;;;;;;;5018351;28;20279;-53
2022/09/27 07:11:44;;;;;;;347.90;151.43;;;;;;;;;;5018121;28;20275;-53
2022/09/27 07:14:11;;;;;;;367.10;156.57;;;;;;;;;;5032092;28;20185;-54
2022/09/27 07:16:37;;;;;;;373.60;170.00;;;;;;;;;;5023419;28;20521;-54
2022/09/27 07:19:04;;;;;;;335.73;147.80;;;;;;;;;;5024567;28;20667;-54
2022/09/27 07:21:31;;;;;;;354.60;154.23;;;;;;;;;;5023806;28;20454;-53
2022/09/27 07:23:57;;;;;;;361.73;162.23;;;;;;;;;;5019876;28;20185;-54
2022/09/27 07:26:23;;;;;;;364.90;158.17;;;;;;;;;;5024526;28;20678;-54
2022/09/27 07:28:48;;;;;;;362.90;163.30;;;;;;;;;;5022719;28;20641;-53
2022/09/27 07:31:15;;;;;;;369.47;162.87;;;;;;;;;;5027559;28;20191;-54
2022/09/27 07:33:41;;;;;;;386.07;169.60;;;;;;;;;;5015058;28;20212;-54
2022/09/27 07:36:08;;;;;;;464.37;204.90;;;;;;;;;;5016716;28;20755;-53
2022/09/27 07:38:34;;;;;;;424.93;184.47;;;;;;;;;;5019166;28;20212;-53
2022/09/27 07:41:05;;;;;;;365.30;159.10;;;;;;;;;;5022863;28;20234;-53
2022/09/27 07:43:31;;;;;;;376.77;164.13;;;;;;;;;;5019391;28;20645;-54
2022/09/27 07:45:57;;;;;;;379.13;165.50;;;;;;;;;;5014249;28;20205;-53
2022/09/27 07:48:24;;;;;;;358.23;157.40;;;;;;;;;;5023814;28;20544;-54
2022/09/27 07:50:50;;;;;;;339.60;150.20;;;;;;;;;;5016705;28;20184;-54
2022/09/27 07:53:16;;;;;;;339.67;148.73;;;;;;;;;;5023531;28;20195;-54
2022/09/27 07:55:42;;;;;;;390.77;171.63;;;;;;;;;;5018175;28;20218;-53
2022/09/27 07:58:09;;;;;;;347.00;150.10;;;;;;;;;;5010478;28;20195;-54
2022/09/27 08:00:36;;;;;;;379.37;165.23;;;;;;;;;;5014812;28;20670;-54
2022/09/27 08:03:09;;;;;;;414.93;183.13;;;;;;;;;;5015454;28;20292;-54
2022/09/27 08:05:35;;;;;;;383.50;169.80;;;;;;;;;;5018992;28;20266;-54
2022/09/27 08:08:02;;;;;;;406.87;174.90;;;;;;;;;;5019754;28;20287;-54
2022/09/27 08:10:30;;;;;;;363.57;160.60;;;;;;;;;;5020783;28;20185;-54
2022/09/27 08:12:56;;;;;;;358.50;158.67;;;;;;;;;;5022107;28;20184;-54
2022/09/27 08:15:22;;;;;;;364.57;159.57;;;;;;;;;;5019563;28;20201;-53
2022/09/27 08:17:49;;;;;;;374.47;165.00;;;;;;;;;;5018132;28;20336;-54
2022/09/27 08:20:15;;;;;;;374.57;163.70;;;;;;;;;;5019252;28;20238;-54
2022/09/27 08:22:42;;;;;;;343.23;148.83;;;;;;;;;;5019989;28;20193;-53
2022/09/27 08:25:08;;;;;;;345.90;154.40;;;;;;;;;;5025284;28;20717;-54
2022/09/27 08:27:34;;;;;;;499.60;226.73;;;;;;;;;;5013392;28;20288;-54
2022/09/27 08:30:02;;;;;;;366.00;162.43;;;;;;;;;;5011176;28;20177;-54
2022/09/27 08:32:29;;;;;;;375.73;165.70;;;;;;;;;;5019428;28;20180;-53
2022/09/27 08:34:55;;;;;;;399.70;173.57;;;;;;;;;;5019150;28;20219;-54
2022/09/27 08:37:21;;;;;;;402.07;177.70;;;;;;;;;;5015331;28;20212;-53
2022/09/27 08:39:47;;;;;;;364.03;161.43;;;;;;;;;;5011419;28;20278;-53
2022/09/27 08:42:13;;;;;;;339.03;148.93;;;;;;;;;;5014466;28;20191;-54
2022/09/27 08:44:54;;;;;;;396.13;173.80;;;;;;;;;;5016154;28;20208;-54
2022/09/27 08:47:26;;;;;;;373.97;163.03;;;;;;;;;;5014266;28;20216;-54
2022/09/27 08:49:54;;;;;;;441.63;193.87;;;;;;;;;;5016576;28;20645;-54
2022/09/27 08:52:22;;;;;;;357.43;154.93;;;;;;;;;;5005352;28;20206;-54
2022/09/27 08:54:49;;;;;;;356.17;155.57;;;;;;;;;;5020856;28;20282;-54
2022/09/27 08:57:16;;;;;;;386.47;166.23;;;;;;;;;;5006852;28;20271;-54
2022/09/27 08:59:45;;;;;;;370.47;164.00;;;;;;;;;;5013830;28;20188;-54
2022/09/27 09:02:23;;;;;;;391.70;189.33;;;;;;;;;;5030894;23;20235;-52
2022/09/27 09:04:51;;;;;;;417.97;206.67;;;;;;;;;;5006034;28;20204;-52
2022/09/27 09:07:31;;;;;;;408.23;202.50;;;;;;;;;;5009650;28;20262;-52
2022/09/27 09:12:45;;;;;;;503.20;233.30;;;;;;;;;;4998696;28;20338;-53
2022/09/27 09:13:05;;;;;;;443.70;208.27;;;;;;;;;;5000991;28;20395;-52
2022/09/27 09:15:53;;;;;;;413.97;210.43;;;;;;;;;;5003946;28;20207;-53
2022/09/27 09:18:30;;;;;;;380.47;188.60;;;;;;;;;;4987195;28;20209;-53
2022/09/27 09:21:15;;;;;;;502.33;232.20;;;;;;;;;;4970382;28;21360;-53
2022/09/27 09:23:56;;;;;;;410.90;195.60;;;;;;;;;;4981103;28;20254;-51
2022/09/27 09:26:31;;;;;;;421.27;210.00;;;;;;;;;;4985690;28;20255;-51
2022/09/27 09:29:05;;;;;;;404.23;201.90;;;;;;;;;;4972583;28;20563;-51
2022/09/27 09:31:41;;;;;;;429.37;221.30;;;;;;;;;;4977045;28;20223;-52
2022/09/27 09:34:14;;;;;;;410.27;210.00;;;;;;;;;;4976216;28;20734;-51
2022/09/27 09:36:45;;;;;;;369.57;182.63;;;;;;;;;;4975393;28;20276;-51
2022/09/27 09:39:14;;;;;;;403.77;202.70;;;;;;;;;;4979160;28;20599;-51
2022/09/27 09:42:03;;;;;;;389.17;195.77;;;;;;;;;;4983519;28;20208;-51
2022/09/27 09:44:32;;;;;;;433.77;224.03;;;;;;;;;;4978787;28;20359;-51
2022/09/27 09:47:00;;;;;;;447.43;230.40;;;;;;;;;;4975657;28;20258;-51
2022/09/27 09:49:47;;;;;;;398.37;201.07;;;;;;;;;;4978648;28;20843;-52
2022/09/27 09:52:24;;;;;;;420.13;212.57;;;;;;;;;;4978731;28;20708;-52
2022/09/27 09:54:50;;;;;;;444.07;226.37;;;;;;;;;;4972252;28;20233;-52
2022/09/27 09:57:22;;;;;;;412.93;208.67;;;;;;;;;;4978747;28;20689;-51
2022/09/27 09:59:59;;;;;;;431.57;221.30;;;;;;;;;;4981984;28;20541;-51
2022/09/27 10:02:33;;;;;;;378.03;193.80;;;;;;;;;;4981854;28;20259;-50
2022/09/27 10:05:00;;;;;;;404.00;206.73;;;;;;;;;;4976708;28;20300;-52
2022/09/27 10:07:26;;;;;;;418.73;213.10;;;;;;;;;;4979055;28;20303;-51
2022/09/27 10:09:54;;;;;;;450.07;222.30;;;;;;;;;;4970981;28;20185;-53
2022/09/27 10:12:20;;;;;;;424.97;212.73;;;;;;;;;;4975271;28;20553;-52
2022/09/27 10:14:48;;;;;;;432.73;215.50;;;;;;;;;;4975135;28;20205;-51
2022/09/27 10:17:16;;;;;;;404.87;203.97;;;;;;;;;;4971363;28;20185;-51
2022/09/27 10:19:43;;;;;;;389.10;186.47;;;;;;;;;;4986950;28;20189;-50
2022/09/27 10:22:13;;;;;;;427.03;201.83;;;;;;;;;;4988409;28;20290;-51
2022/09/27 10:24:55;;;;;;;403.37;198.77;;;;;;;;;;4985650;28;20209;-52
2022/09/27 10:27:22;;;;;;;407.23;198.57;;;;;;;;;;4988572;28;20290;-52
2022/09/27 10:29:55;;;;;;;396.90;197.80;;;;;;;;;;4981948;28;20589;-52
2022/09/27 10:32:23;;;;;;;432.70;212.00;;;;;;;;;;4988709;28;20229;-51
2022/09/27 10:34:50;;;;;;;471.27;219.57;;;;;;;;;;4977850;28;20283;-52
2022/09/27 10:37:18;;;;;;;418.53;205.33;;;;;;;;;;4987396;28;20184;-50
2022/09/27 10:39:46;;;;;;;423.60;205.53;;;;;;;;;;4990564;28;20645;-52
2022/09/27 10:42:22;;;;;;;353.67;174.30;;;;;;;;;;4990076;28;20963;-52
2022/09/27 10:44:48;;;;;;;384.43;186.33;;;;;;;;;;4982806;28;20304;-52
2022/09/27 10:47:21;;;;;;;399.43;191.70;;;;;;;;;;4972169;28;21256;-51
2022/09/27 10:49:48;;;;;;;452.73;212.57;;;;;;;;;;4977036;28;20187;-52
2022/09/27 10:52:15;;;;;;;357.33;174.50;;;;;;;;;;4973471;28;20173;-50
2022/09/27 10:54:42;;;;;;;456.63;233.87;;;;;;;;;;4979169;28;20212;-50
2022/09/27 10:57:14;;;;;;;414.97;202.63;;;;;;;;;;4976938;28;20198;-51
2022/09/27 10:59:42;;;;;;;404.30;197.37;;;;;;;;;;4981266;28;20268;-53
2022/09/27 11:02:38;;;;;;;462.70;217.43;;;;;;;;;;4978766;28;20349;-52
2022/09/27 11:05:04;;;;;;;411.90;208.40;;;;;;;;;;4971026;28;20225;-51
2022/09/27 11:07:30;;;;;;;460.90;237.53;;;;;;;;;;4967752;28;20634;-51
2022/09/27 11:10:01;;;;;;;411.70;207.67;;;;;;;;;;4981143;28;20553;-51
2022/09/27 11:12:29;;;;;;;385.80;195.63;;;;;;;;;;4984855;28;20284;-52
2022/09/27 11:15:01;;;;;;;380.50;193.67;;;;;;;;;;4981889;28;20201;-52
2022/09/27 11:17:45;;;;;;;387.83;195.37;;;;;;;;;;4986599;28;20331;-51
2022/09/27 11:20:30;;;;;;;407.47;206.50;;;;;;;;;;4984000;28;20223;-51
2022/09/27 11:22:56;;;;;;;418.83;217.23;;;;;;;;;;4981771;28;20244;-51
2022/09/27 11:25:40;;;;;;;380.77;192.90;;;;;;;;;;4986869;28;20263;-51
2022/09/27 11:28:16;;;;;;;375.30;188.93;;;;;;;;;;4983710;28;20291;-51
2022/09/27 11:30:48;;;;;;;341.43;171.40;;;;;;;;;;4986397;28;20192;-52
2022/09/27 11:33:29;;;;;;;395.00;198.43;;;;;;;;;;4990573;28;20632;-51
2022/09/27 11:36:01;;;;;;;389.60;197.73;;;;;;;;;;4985133;28;20351;-51
2022/09/27 11:38:31;;;;;;;401.60;203.17;;;;;;;;;;4989027;28;20674;-51
2022/09/27 11:41:05;;;;;;;395.83;197.97;;;;;;;;;;4988783;28;20223;-52
2022/09/27 11:43:38;;;;;;;376.20;190.10;;;;;;;;;;4986747;28;20240;-52
2022/09/27 11:46:23;;;;;;;395.23;199.83;;;;;;;;;;4983034;28;20320;-51
2022/09/27 11:49:01;;;;;;;375.97;189.67;;;;;;;;;;4981379;28;20215;-53
2022/09/27 11:51:31;;;;;;;359.77;184.53;;;;;;;;;;4986027;28;20609;-51
2022/09/27 11:54:12;;;;;;;402.20;207.47;;;;;;;;;;4979928;28;20649;-51
2022/09/27 11:56:57;;;;;;;435.60;222.37;;;;;;;;;;4977205;28;20829;-51
2022/09/27 11:59:26;;;;;;;411.83;208.10;;;;;;;;;;4981849;28;20608;-51
2022/09/27 12:02:10;;;;;;;395.63;198.40;;;;;;;;;;4984210;28;20608;-52
2022/09/27 12:05:07;;;;;;;381.87;195.20;;;;;;;;;;4984011;28;20210;-50
2022/09/27 12:07:51;;;;;;;349.10;177.70;;;;;;;;;;4972928;28;20228;-51
2022/09/27 12:10:20;;;;;;;369.40;188.23;;;;;;;;;;4984768;28;20259;-52
2022/09/27 12:12:50;;;;;;;386.63;195.00;;;;;;;;;;4987789;28;20192;-51
2022/09/27 12:15:24;;;;;;;410.33;213.87;;;;;;;;;;4978432;28;20221;-51
2022/09/27 12:17:54;;;;;;;445.33;231.90;;;;;;;;;;4977382;28;20648;-51
2022/09/27 12:20:30;;;;;;;394.47;199.73;;;;;;;;;;4979743;28;20193;-50
2022/09/27 12:22:59;;;;;;;371.63;186.47;;;;;;;;;;4979170;28;20188;-53
2022/09/27 12:25:28;;;;;;;442.23;225.97;;;;;;;;;;4985438;28;20225;-51
2022/09/27 12:28:03;;;;;;;455.83;232.67;;;;;;;;;;4978029;28;20209;-52
2022/09/27 12:30:30;;;;;;;392.40;196.67;;;;;;;;;;4975452;28;20184;-51
2022/09/27 12:33:08;;;;;;;449.50;227.20;;;;;;;;;;4974872;28;20177;-52
2022/09/27 12:35:43;;;;;;;451.73;232.33;;;;;;;;;;4983049;28;20259;-52
2022/09/27 12:38:12;;;;;;;398.13;202.20;;;;;;;;;;4989021;28;20644;-52
2022/09/27 12:40:39;;;;;;;467.57;233.93;;;;;;;;;;4981832;28;20241;-50
2022/09/27 12:43:16;;;;;;;489.63;254.77;;;;;;;;;;4975892;28;20482;-51
2022/09/27 12:45:50;;;;;;;393.83;196.67;;;;;;;;;;4973248;28;20219;-51
2022/09/27 12:48:21;;;;;;;423.07;209.20;;;;;;;;;;4981641;28;20303;-50
2022/09/27 12:50:50;;;;;;;441.93;223.30;;;;;;;;;;4976484;28;20810;-52
2022/09/27 12:53:22;;;;;;;425.17;212.03;;;;;;;;;;4982293;28;20199;-51
2022/09/27 12:56:02;;;;;;;389.07;195.03;;;;;;;;;;4985258;28;20307;-51
2022/09/27 12:58:34;;;;;;;414.50;207.87;;;;;;;;;;4980393;28;20192;-52
2022/09/27 13:01:26;;;;;;;426.57;219.40;;;;;;;;;;4979903;28;20220;-52
2022/09/27 13:03:58;;;;;;;422.97;215.47;;;;;;;;;;4983813;28;20214;-52
2022/09/27 13:06:46;;;;;;;390.57;196.97;;;;;;;;;;4985090;28;20287;-52
2022/09/27 13:09:26;;;;;;;372.07;184.67;;;;;;;;;;4985821;28;20212;-52
2022/09/27 13:12:08;;;;;;;409.63;206.37;;;;;;;;;;4984106;28;20679;-52
2022/09/27 13:14:38;;;;;;;445.80;227.83;;;;;;;;;;4977257;28;20205;-52
2022/09/27 13:17:05;;;;;;;441.93;231.20;;;;;;;;;;4973355;28;21155;-53
2022/09/27 13:19:33;;;;;;;440.93;224.03;;;;;;;;;;4992551;28;20234;-51
2022/09/27 13:21:59;;;;;;;373.20;187.70;;;;;;;;;;4983004;28;20297;-51
2022/09/27 13:24:38;;;;;;;504.93;268.17;;;;;;;;;;4981164;28;20309;-51
2022/09/27 13:27:22;;;;;;;372.13;184.30;;;;;;;;;;4991797;28;20209;-52
2022/09/27 13:29:48;;;;;;;366.50;182.33;;;;;;;;;;4989492;28;20181;-51
2022/09/27 13:32:15;;;;;;;437.60;225.63;;;;;;;;;;4985337;28;20185;-51
2022/09/27 13:34:43;;;;;;;400.03;200.67;;;;;;;;;;4975497;28;20201;-51
2022/09/27 13:37:28;;;;;;;391.60;197.47;;;;;;;;;;4983701;28;20326;-50
2022/09/27 13:40:17;;;;;;;382.50;188.47;;;;;;;;;;4975433;28;20323;-51
2022/09/27 13:43:07;;;;;;;528.67;266.30;;;;;;;;;;4962750;28;20710;-52
2022/09/27 13:45:56;;;;;;;424.03;216.37;;;;;;;;;;4978951;28;20376;-51
2022/09/27 13:48:25;;;;;;;377.80;184.77;;;;;;;;;;4979618;28;20392;-51
2022/09/27 13:50:55;;;;;;;439.83;220.93;;;;;;;;;;4976523;28;20196;-51
2022/09/27 13:53:27;;;;;;;373.17;180.83;;;;;;;;;;4982101;28;20298;-50
2022/09/27 13:55:53;;;;;;;395.63;186.77;;;;;;;;;;4988453;28;20206;-51
2022/09/27 13:58:19;;;;;;;407.70;188.77;;;;;;;;;;4992197;28;20200;-51
2022/09/27 14:00:48;;;;;;;400.20;186.83;;;;;;;;;;4993830;28;20186;-51
2022/09/27 14:03:16;;;;;;;395.17;186.90;;;;;;;;;;4994077;28;20295;-51
2022/09/27 14:05:51;;;;;;;422.53;211.33;;;;;;;;;;4994529;28;20708;-51
2022/09/27 14:08:23;;;;;;;385.80;183.90;;;;;;;;;;4993876;28;20216;-51
2022/09/27 14:10:50;;;;;;;395.27;190.07;;;;;;;;;;4993691;28;20252;-52
2022/09/27 14:13:19;;;;;;;383.20;187.10;;;;;;;;;;4990890;28;20271;-51